DCSAG TNCM-TXKF
Flight info
| Callsign | DCSAG |
|---|---|
| Flight time | 2h 22m |
| Altitude | 40000 |
| Route | MODOR2 MNOLO M576 NEYDU L462 DAWIN/M070F430 L462 PIREX/M074F410 |
| Aircraft | E55P/M-SBDFGHJ2RWY/LB2 |
Departure
| Time | 2026-04-23 13:55 |
|---|---|
| Airport | Princess Juliana International Airport (TNCM) |
Arrival
| Time | 2026-04-23 16:18 |
|---|---|
| Airport | L.F. Wade International Airport (TXKF) |
| Time | Latitude | Longitude | Altitude | Speed | Heading |
|---|---|---|---|---|---|
| 2026-04-23 13:41 | 18.04217 | -63.10947 | 4 ft | 0 kts | 346° |
| 2026-04-23 13:51 | 18.04220 | -63.10948 | 4 ft | 2 kts | 333° |
| 2026-04-23 13:51 | 18.04221 | -63.10967 | 4 ft | 4 kts | 220° |
| 2026-04-23 13:51 | 18.04183 | -63.10974 | 4 ft | 7 kts | 204° |
| 2026-04-23 13:52 | 18.04146 | -63.11003 | 4 ft | 6 kts | 210° |
| 2026-04-23 13:52 | 18.04091 | -63.11005 | 4 ft | 10 kts | 192° |
| 2026-04-23 13:52 | 18.04064 | -63.11072 | 4 ft | 13 kts | 264° |
| 2026-04-23 13:52 | 18.04051 | -63.11174 | 4 ft | 16 kts | 260° |
| 2026-04-23 13:53 | 18.04031 | -63.11302 | 4 ft | 19 kts | 261° |
| 2026-04-23 13:53 | 18.04009 | -63.11454 | 4 ft | 23 kts | 262° |
| 2026-04-23 13:53 | 18.03985 | -63.11629 | 4 ft | 26 kts | 262° |
| 2026-04-23 13:53 | 18.03959 | -63.11810 | 4 ft | 23 kts | 260° |
| 2026-04-23 13:54 | 18.03931 | -63.11901 | 4 ft | 8 kts | 289° |
| 2026-04-23 13:54 | 18.03953 | -63.11887 | 4 ft | 5 kts | 116° |
| 2026-04-23 13:54 | 18.03951 | -63.11862 | 4 ft | 3 kts | 76° |
| 2026-04-23 13:54 | 18.03970 | -63.11736 | 4 ft | 48 kts | 80° |
| 2026-04-23 13:55 | 18.04063 | -63.11096 | 4 ft | 128 kts | 81° |
| 2026-04-23 13:55 | 18.04166 | -63.10013 | 543 ft | 163 kts | 90° |
| 2026-04-23 13:55 | 18.03777 | -63.08794 | 1333 ft | 198 kts | 129° |
| 2026-04-23 13:55 | 18.02470 | -63.08119 | 2166 ft | 227 kts | 171° |
| 2026-04-23 13:56 | 18.00833 | -63.07985 | 3175 ft | 239 kts | 173° |
| 2026-04-23 13:56 | 17.99118 | -63.07810 | 4035 ft | 264 kts | 173° |
| 2026-04-23 13:56 | 17.97229 | -63.07686 | 4932 ft | 278 kts | 176° |
| 2026-04-23 13:56 | 17.95282 | -63.07659 | 6103 ft | 281 kts | 179° |
| 2026-04-23 13:57 | 17.93314 | -63.07714 | 7235 ft | 286 kts | 181° |
| 2026-04-23 13:57 | 17.91305 | -63.07842 | 8326 ft | 291 kts | 183° |
| 2026-04-23 13:57 | 17.89278 | -63.08055 | 9394 ft | 295 kts | 185° |
| 2026-04-23 13:57 | 17.87247 | -63.08016 | 10398 ft | 299 kts | 166° |
| 2026-04-23 13:58 | 17.85352 | -63.07024 | 11018 ft | 315 kts | 137° |
| 2026-04-23 13:58 | 17.84157 | -63.05119 | 11897 ft | 316 kts | 107° |
| 2026-04-23 13:58 | 17.83928 | -63.02809 | 12402 ft | 332 kts | 83° |
| 2026-04-23 13:58 | 17.84764 | -63.00487 | 12669 ft | 347 kts | 52° |
| 2026-04-23 13:59 | 17.86562 | -62.98837 | 13430 ft | 348 kts | 26° |
| 2026-04-23 13:59 | 17.88894 | -62.98178 | 14102 ft | 349 kts | 360° |
| 2026-04-23 13:59 | 17.91248 | -62.98670 | 14783 ft | 349 kts | 334° |
| 2026-04-23 13:59 | 17.93168 | -63.00197 | 15454 ft | 349 kts | 311° |
| 2026-04-23 14:00 | 17.94240 | -63.01457 | 15903 ft | 350 kts | 313° |
| 2026-04-23 14:00 | 17.97052 | -63.03189 | 16727 ft | 361 kts | 345° |
| 2026-04-23 14:00 | 17.99568 | -63.03219 | 17296 ft | 370 kts | 10° |
| 2026-04-23 14:00 | 18.01994 | -63.02242 | 17859 ft | 377 kts | 26° |
| 2026-04-23 14:01 | 18.04247 | -63.00781 | 18380 ft | 383 kts | 32° |
| 2026-04-23 14:01 | 18.06412 | -62.99114 | 18880 ft | 387 kts | 35° |
| 2026-04-23 14:01 | 18.08554 | -62.97382 | 19345 ft | 390 kts | 35° |
| 2026-04-23 14:01 | 18.10731 | -62.95649 | 19814 ft | 393 kts | 34° |
| 2026-04-23 14:02 | 18.12944 | -62.93952 | 20256 ft | 395 kts | 32° |
| 2026-04-23 14:02 | 18.15210 | -62.92295 | 20692 ft | 397 kts | 31° |
| 2026-04-23 14:02 | 18.17529 | -62.90685 | 21100 ft | 400 kts | 29° |
| 2026-04-23 14:02 | 18.19888 | -62.89120 | 21502 ft | 402 kts | 28° |
| 2026-04-23 14:03 | 18.22254 | -62.87605 | 21878 ft | 404 kts | 27° |
| 2026-04-23 14:03 | 18.24713 | -62.86077 | 22251 ft | 406 kts | 26° |
| 2026-04-23 14:03 | 18.27162 | -62.84587 | 22618 ft | 408 kts | 26° |
| 2026-04-23 14:03 | 18.29641 | -62.83103 | 22965 ft | 410 kts | 25° |
| 2026-04-23 14:04 | 18.32106 | -62.81556 | 23314 ft | 414 kts | 30° |
| 2026-04-23 14:04 | 18.34423 | -62.79784 | 23645 ft | 419 kts | 34° |
| 2026-04-23 14:04 | 18.36679 | -62.77822 | 23963 ft | 422 kts | 37° |
| 2026-04-23 14:04 | 18.38975 | -62.75905 | 24253 ft | 419 kts | 26° |
| 2026-04-23 14:05 | 18.41633 | -62.74736 | 24540 ft | 411 kts | 10° |
| 2026-04-23 14:05 | 18.44421 | -62.74149 | 24837 ft | 408 kts | 2° |
| 2026-04-23 14:05 | 18.47243 | -62.73855 | 25110 ft | 408 kts | 359° |
| 2026-04-23 14:05 | 18.50074 | -62.73686 | 25400 ft | 408 kts | 357° |
| 2026-04-23 14:06 | 18.52917 | -62.73562 | 25684 ft | 409 kts | 357° |
| 2026-04-23 14:06 | 18.55767 | -62.73438 | 25935 ft | 411 kts | 357° |
| 2026-04-23 14:06 | 18.58632 | -62.73289 | 26184 ft | 413 kts | 358° |
| 2026-04-23 14:06 | 18.61509 | -62.73105 | 26451 ft | 414 kts | 358° |
| 2026-04-23 14:07 | 18.64384 | -62.72886 | 26674 ft | 416 kts | 359° |
| 2026-04-23 14:07 | 18.70189 | -62.72334 | 27121 ft | 420 kts | 360° |
| 2026-04-23 14:07 | 18.73106 | -62.72020 | 27360 ft | 421 kts | 0° |
| 2026-04-23 14:08 | 18.76028 | -62.71685 | 27554 ft | 423 kts | 0° |
| 2026-04-23 14:08 | 18.78918 | -62.71337 | 27760 ft | 425 kts | 0° |
| 2026-04-23 14:08 | 18.81854 | -62.70968 | 27960 ft | 426 kts | 1° |
| 2026-04-23 14:08 | 18.84805 | -62.70585 | 28153 ft | 427 kts | 1° |
| 2026-04-23 14:09 | 18.87760 | -62.70192 | 28339 ft | 429 kts | 1° |
| 2026-04-23 14:09 | 18.90726 | -62.69788 | 28522 ft | 430 kts | 1° |
| 2026-04-23 14:09 | 18.93697 | -62.69378 | 28700 ft | 431 kts | 1° |
| 2026-04-23 14:09 | 18.96673 | -62.68962 | 28837 ft | 432 kts | 1° |
| 2026-04-23 14:10 | 18.99664 | -62.68540 | 28987 ft | 434 kts | 1° |
| 2026-04-23 14:10 | 19.02665 | -62.68113 | 29130 ft | 435 kts | 1° |
| 2026-04-23 14:10 | 19.05667 | -62.67682 | 29282 ft | 436 kts | 1° |
| 2026-04-23 14:10 | 19.08679 | -62.67248 | 29430 ft | 437 kts | 1° |
| 2026-04-23 14:11 | 19.11691 | -62.66812 | 29577 ft | 438 kts | 1° |
| 2026-04-23 14:11 | 19.14715 | -62.66373 | 29714 ft | 439 kts | 1° |
| 2026-04-23 14:11 | 19.17753 | -62.65931 | 29838 ft | 441 kts | 1° |
| 2026-04-23 14:11 | 19.20788 | -62.65488 | 29979 ft | 441 kts | 1° |
| 2026-04-23 14:12 | 19.23829 | -62.65042 | 30308 ft | 435 kts | 1° |
| 2026-04-23 14:12 | 19.26795 | -62.64599 | 30734 ft | 431 kts | 0° |
| 2026-04-23 14:12 | 19.32769 | -62.63720 | 30950 ft | 435 kts | 0° |
| 2026-04-23 14:13 | 19.35769 | -62.63280 | 31089 ft | 436 kts | 0° |
| 2026-04-23 14:13 | 19.38785 | -62.62839 | 31174 ft | 438 kts | 0° |
| 2026-04-23 14:13 | 19.41807 | -62.62396 | 31308 ft | 439 kts | 0° |
| 2026-04-23 14:13 | 19.44833 | -62.61953 | 31416 ft | 441 kts | 0° |
| 2026-04-23 14:14 | 19.47879 | -62.61506 | 31541 ft | 442 kts | 0° |
| 2026-04-23 14:14 | 19.50923 | -62.61058 | 31654 ft | 443 kts | 0° |
| 2026-04-23 14:14 | 19.57051 | -62.60156 | 31872 ft | 445 kts | 0° |
| 2026-04-23 14:15 | 19.62169 | -62.59396 | 32031 ft | 447 kts | 0° |
| 2026-04-23 14:15 | 19.65251 | -62.58932 | 32145 ft | 448 kts | 0° |
| 2026-04-23 14:15 | 19.68350 | -62.58464 | 32225 ft | 450 kts | 0° |
| 2026-04-23 14:16 | 19.71459 | -62.57997 | 32334 ft | 450 kts | 0° |
| 2026-04-23 14:16 | 19.74566 | -62.57535 | 32444 ft | 451 kts | 0° |
| 2026-04-23 14:16 | 19.80753 | -62.56622 | 32995 ft | 442 kts | 0° |
| 2026-04-23 14:17 | 19.83791 | -62.56166 | 33254 ft | 441 kts | 0° |
| 2026-04-23 14:17 | 19.86845 | -62.55715 | 33321 ft | 443 kts | 360° |
| 2026-04-23 14:17 | 19.89900 | -62.55266 | 33438 ft | 444 kts | 360° |
| 2026-04-23 14:17 | 19.92962 | -62.54816 | 33550 ft | 445 kts | 360° |
| 2026-04-23 14:18 | 19.99130 | -62.53911 | 33746 ft | 447 kts | 360° |
| 2026-04-23 14:18 | 20.05305 | -62.53000 | 33916 ft | 450 kts | 360° |
| 2026-04-23 14:19 | 20.08402 | -62.52543 | 34021 ft | 450 kts | 360° |
| 2026-04-23 14:19 | 20.11513 | -62.52083 | 34126 ft | 451 kts | 360° |
| 2026-04-23 14:19 | 20.14618 | -62.51622 | 34257 ft | 451 kts | 360° |
| 2026-04-23 14:19 | 20.17732 | -62.51159 | 34361 ft | 451 kts | 360° |
| 2026-04-23 14:20 | 20.23969 | -62.50230 | 34550 ft | 453 kts | 359° |
| 2026-04-23 14:20 | 20.30221 | -62.49299 | 34737 ft | 454 kts | 360° |
| 2026-04-23 14:21 | 20.36493 | -62.48363 | 34919 ft | 455 kts | 360° |
| 2026-04-23 14:21 | 20.42733 | -62.47430 | 35279 ft | 450 kts | 360° |
| 2026-04-23 14:22 | 20.45796 | -62.46960 | 35781 ft | 442 kts | 359° |
| 2026-04-23 14:22 | 20.48843 | -62.46500 | 35829 ft | 443 kts | 359° |
| 2026-04-23 14:22 | 20.51896 | -62.46195 | 35930 ft | 436 kts | 352° |
| 2026-04-23 14:22 | 20.54909 | -62.46258 | 36022 ft | 431 kts | 347° |
| 2026-04-23 14:23 | 20.60823 | -62.46989 | 36214 ft | 425 kts | 342° |
| 2026-04-23 14:23 | 20.63773 | -62.47509 | 36326 ft | 424 kts | 341° |
| 2026-04-23 14:23 | 20.66676 | -62.48069 | 36426 ft | 424 kts | 340° |
| 2026-04-23 14:24 | 20.72477 | -62.49249 | 36571 ft | 425 kts | 340° |
| 2026-04-23 14:24 | 20.75378 | -62.49850 | 36674 ft | 425 kts | 340° |
| 2026-04-23 14:24 | 20.78288 | -62.50450 | 36773 ft | 425 kts | 340° |
| 2026-04-23 14:25 | 20.84107 | -62.51645 | 36938 ft | 426 kts | 340° |
| 2026-04-23 14:25 | 20.89944 | -62.52830 | 37088 ft | 427 kts | 340° |
| 2026-04-23 14:26 | 20.92828 | -62.53411 | 37197 ft | 427 kts | 340° |
| 2026-04-23 14:26 | 20.95744 | -62.53995 | 37286 ft | 427 kts | 340° |
| 2026-04-23 14:26 | 21.01598 | -62.55165 | 37428 ft | 428 kts | 340° |
| 2026-04-23 14:27 | 21.07452 | -62.56330 | 37654 ft | 425 kts | 340° |
| 2026-04-23 14:27 | 21.10308 | -62.56886 | 38234 ft | 413 kts | 339° |
| 2026-04-23 14:27 | 21.13138 | -62.57441 | 38316 ft | 413 kts | 339° |
| 2026-04-23 14:28 | 21.18844 | -62.58576 | 38481 ft | 414 kts | 339° |
| 2026-04-23 14:28 | 21.24528 | -62.59715 | 38633 ft | 415 kts | 339° |
| 2026-04-23 14:29 | 21.30225 | -62.60855 | 38785 ft | 416 kts | 339° |
| 2026-04-23 14:29 | 21.35917 | -62.61992 | 38965 ft | 416 kts | 339° |
| 2026-04-23 14:30 | 21.41625 | -62.63128 | 39113 ft | 417 kts | 339° |
| 2026-04-23 14:30 | 21.47341 | -62.64257 | 39244 ft | 417 kts | 339° |
| 2026-04-23 14:31 | 21.53061 | -62.65379 | 39375 ft | 418 kts | 339° |
| 2026-04-23 14:31 | 21.58787 | -62.66512 | 39503 ft | 418 kts | 339° |
| 2026-04-23 14:32 | 21.64510 | -62.67661 | 39615 ft | 419 kts | 339° |
| 2026-04-23 14:32 | 21.70248 | -62.68816 | 39727 ft | 419 kts | 339° |
| 2026-04-23 14:33 | 21.75995 | -62.69961 | 39825 ft | 420 kts | 339° |
| 2026-04-23 14:33 | 21.81711 | -62.71101 | 39961 ft | 420 kts | 339° |
| 2026-04-23 14:34 | 21.87454 | -62.72257 | 40049 ft | 420 kts | 339° |
| 2026-04-23 14:34 | 21.90294 | -62.72822 | 40597 ft | 407 kts | 339° |
| 2026-04-23 14:34 | 21.93072 | -62.73370 | 40738 ft | 406 kts | 339° |
| 2026-04-23 14:35 | 21.98631 | -62.74488 | 40836 ft | 407 kts | 339° |
| 2026-04-23 14:35 | 22.04197 | -62.75613 | 41033 ft | 406 kts | 338° |
| 2026-04-23 14:36 | 22.09752 | -62.76737 | 41140 ft | 406 kts | 338° |
| 2026-04-23 14:36 | 22.15321 | -62.77865 | 41251 ft | 407 kts | 338° |
| 2026-04-23 14:37 | 22.20891 | -62.78992 | 41357 ft | 408 kts | 338° |
| 2026-04-23 14:37 | 22.26478 | -62.80121 | 41444 ft | 409 kts | 338° |
| 2026-04-23 14:38 | 22.32087 | -62.81256 | 41528 ft | 410 kts | 338° |
| 2026-04-23 14:38 | 22.37689 | -62.82386 | 41654 ft | 410 kts | 338° |
| 2026-04-23 14:39 | 22.43281 | -62.83518 | 41715 ft | 411 kts | 338° |
| 2026-04-23 14:39 | 22.48947 | -62.84663 | 41799 ft | 412 kts | 338° |
| 2026-04-23 14:40 | 22.54581 | -62.85803 | 41876 ft | 412 kts | 338° |
| 2026-04-23 14:40 | 22.60224 | -62.86946 | 41951 ft | 413 kts | 338° |
| 2026-04-23 14:41 | 22.65875 | -62.88091 | 42024 ft | 413 kts | 338° |
| 2026-04-23 14:41 | 22.71473 | -62.89215 | 42568 ft | 401 kts | 338° |
| 2026-04-23 14:42 | 22.74221 | -62.89764 | 42675 ft | 400 kts | 338° |
| 2026-04-23 14:42 | 22.76946 | -62.90311 | 42841 ft | 396 kts | 338° |
| 2026-04-23 14:42 | 22.79617 | -62.90850 | 42965 ft | 395 kts | 338° |
| 2026-04-23 14:42 | 22.82319 | -62.91400 | 43025 ft | 395 kts | 338° |
| 2026-04-23 14:43 | 22.87721 | -62.92506 | 43043 ft | 395 kts | 338° |
| 2026-04-23 14:43 | 22.93147 | -62.93619 | 43043 ft | 397 kts | 338° |
| 2026-04-23 14:44 | 22.98583 | -62.94733 | 43044 ft | 398 kts | 338° |
| 2026-04-23 14:44 | 23.04040 | -62.95850 | 43044 ft | 399 kts | 338° |
| 2026-04-23 14:45 | 23.09508 | -62.96967 | 43045 ft | 400 kts | 338° |
| 2026-04-23 14:45 | 23.14961 | -62.98081 | 43055 ft | 401 kts | 338° |
| 2026-04-23 14:46 | 23.20452 | -62.99204 | 43057 ft | 402 kts | 338° |
| 2026-04-23 14:46 | 23.25955 | -63.00329 | 43058 ft | 403 kts | 338° |
| 2026-04-23 14:47 | 23.31475 | -63.01459 | 43058 ft | 404 kts | 338° |
| 2026-04-23 14:47 | 23.37000 | -63.02591 | 43059 ft | 405 kts | 338° |
| 2026-04-23 14:48 | 23.42541 | -63.03727 | 43059 ft | 405 kts | 338° |
| 2026-04-23 14:48 | 23.48088 | -63.04865 | 43059 ft | 406 kts | 338° |
| 2026-04-23 14:49 | 23.53640 | -63.06005 | 43059 ft | 406 kts | 338° |
| 2026-04-23 14:49 | 23.59202 | -63.07147 | 43059 ft | 407 kts | 338° |
| 2026-04-23 14:50 | 23.64763 | -63.08290 | 43060 ft | 407 kts | 338° |
| 2026-04-23 14:50 | 23.70297 | -63.09429 | 43060 ft | 407 kts | 338° |
| 2026-04-23 14:51 | 23.75860 | -63.10575 | 43061 ft | 407 kts | 338° |
| 2026-04-23 14:51 | 23.80528 | -63.11537 | 43061 ft | 407 kts | 338° |
| 2026-04-23 14:52 | 23.86094 | -63.12686 | 43062 ft | 407 kts | 338° |
| 2026-04-23 14:52 | 23.91674 | -63.13838 | 43063 ft | 407 kts | 338° |
| 2026-04-23 14:53 | 23.97246 | -63.14990 | 43063 ft | 408 kts | 338° |
| 2026-04-23 14:53 | 24.02826 | -63.16145 | 43064 ft | 408 kts | 338° |
| 2026-04-23 14:54 | 24.08397 | -63.17299 | 43064 ft | 408 kts | 338° |
| 2026-04-23 14:54 | 24.13985 | -63.18458 | 43065 ft | 408 kts | 338° |
| 2026-04-23 14:55 | 24.19561 | -63.19615 | 43066 ft | 408 kts | 338° |
| 2026-04-23 14:55 | 24.25147 | -63.20776 | 43066 ft | 408 kts | 338° |
| 2026-04-23 14:56 | 24.30732 | -63.21937 | 43067 ft | 408 kts | 338° |
| 2026-04-23 14:56 | 24.36291 | -63.23093 | 43068 ft | 408 kts | 338° |
| 2026-04-23 14:57 | 24.41884 | -63.24258 | 43068 ft | 409 kts | 338° |
| 2026-04-23 14:57 | 24.47481 | -63.25425 | 43069 ft | 409 kts | 338° |
| 2026-04-23 14:58 | 24.53078 | -63.26593 | 43070 ft | 409 kts | 338° |
| 2026-04-23 14:58 | 24.58633 | -63.27753 | 43070 ft | 409 kts | 338° |
| 2026-04-23 14:59 | 24.64262 | -63.28930 | 43071 ft | 409 kts | 338° |
| 2026-04-23 14:59 | 24.69828 | -63.30094 | 43072 ft | 409 kts | 338° |
| 2026-04-23 15:00 | 24.75425 | -63.31266 | 43072 ft | 409 kts | 338° |
| 2026-04-23 15:00 | 24.81022 | -63.32439 | 43073 ft | 409 kts | 338° |
| 2026-04-23 15:01 | 24.86623 | -63.33614 | 43074 ft | 409 kts | 338° |
| 2026-04-23 15:01 | 24.92224 | -63.34791 | 43075 ft | 409 kts | 338° |
| 2026-04-23 15:02 | 24.97825 | -63.35968 | 43075 ft | 410 kts | 338° |
| 2026-04-23 15:02 | 25.03424 | -63.37146 | 43076 ft | 410 kts | 338° |
| 2026-04-23 15:03 | 25.09026 | -63.38326 | 43077 ft | 410 kts | 338° |
| 2026-04-23 15:03 | 25.14599 | -63.39500 | 43078 ft | 410 kts | 338° |
| 2026-04-23 15:04 | 25.20205 | -63.40683 | 43079 ft | 410 kts | 338° |
| 2026-04-23 15:04 | 25.25822 | -63.41869 | 43079 ft | 410 kts | 338° |
| 2026-04-23 15:05 | 25.31428 | -63.43054 | 43080 ft | 410 kts | 338° |
| 2026-04-23 15:05 | 25.37035 | -63.44241 | 43081 ft | 411 kts | 338° |
| 2026-04-23 15:06 | 25.42659 | -63.45432 | 43082 ft | 411 kts | 338° |
| 2026-04-23 15:06 | 25.48315 | -63.46630 | 43083 ft | 411 kts | 338° |
| 2026-04-23 15:07 | 25.53899 | -63.47815 | 43084 ft | 411 kts | 338° |
| 2026-04-23 15:07 | 25.59519 | -63.49008 | 43085 ft | 411 kts | 338° |
| 2026-04-23 15:08 | 25.65136 | -63.50201 | 43086 ft | 411 kts | 338° |
| 2026-04-23 15:09 | 25.73563 | -63.51994 | 43087 ft | 411 kts | 338° |
| 2026-04-23 15:09 | 25.79171 | -63.53189 | 43088 ft | 410 kts | 338° |
| 2026-04-23 15:10 | 25.83830 | -63.54182 | 43089 ft | 410 kts | 338° |
| 2026-04-23 15:10 | 25.90397 | -63.55584 | 43090 ft | 410 kts | 338° |
| 2026-04-23 15:11 | 25.95967 | -63.56775 | 43091 ft | 410 kts | 338° |
| 2026-04-23 15:11 | 26.01574 | -63.57975 | 43091 ft | 410 kts | 338° |
| 2026-04-23 15:12 | 26.07183 | -63.59176 | 43092 ft | 410 kts | 338° |
| 2026-04-23 15:12 | 26.12785 | -63.60377 | 43093 ft | 410 kts | 338° |
| 2026-04-23 15:13 | 26.18389 | -63.61580 | 43094 ft | 410 kts | 338° |
| 2026-04-23 15:13 | 26.23956 | -63.62776 | 43095 ft | 410 kts | 338° |
| 2026-04-23 15:14 | 26.29560 | -63.63980 | 43096 ft | 410 kts | 338° |
| 2026-04-23 15:14 | 26.35159 | -63.65185 | 43097 ft | 410 kts | 338° |
| 2026-04-23 15:15 | 26.40762 | -63.66392 | 43098 ft | 410 kts | 338° |
| 2026-04-23 15:15 | 26.46371 | -63.67602 | 43099 ft | 410 kts | 338° |
| 2026-04-23 15:16 | 26.51986 | -63.68814 | 43100 ft | 410 kts | 338° |
| 2026-04-23 15:16 | 26.57559 | -63.70019 | 43101 ft | 410 kts | 338° |
| 2026-04-23 15:17 | 26.63170 | -63.71233 | 43102 ft | 411 kts | 338° |
| 2026-04-23 15:17 | 26.68790 | -63.72450 | 43104 ft | 411 kts | 338° |
| 2026-04-23 15:18 | 26.74406 | -63.73667 | 43105 ft | 411 kts | 338° |
| 2026-04-23 15:18 | 26.80026 | -63.74887 | 43106 ft | 411 kts | 338° |
| 2026-04-23 15:19 | 26.85649 | -63.76107 | 43107 ft | 412 kts | 338° |
| 2026-04-23 15:19 | 26.91278 | -63.77330 | 43107 ft | 412 kts | 338° |
| 2026-04-23 15:20 | 26.95953 | -63.78346 | 43109 ft | 412 kts | 338° |
| 2026-04-23 15:20 | 27.02541 | -63.79781 | 43110 ft | 413 kts | 338° |
| 2026-04-23 15:21 | 27.08179 | -63.81010 | 43111 ft | 413 kts | 338° |
| 2026-04-23 15:21 | 27.13826 | -63.82242 | 43112 ft | 413 kts | 338° |
| 2026-04-23 15:22 | 27.19485 | -63.83479 | 43113 ft | 414 kts | 338° |
| 2026-04-23 15:22 | 27.25144 | -63.84717 | 43114 ft | 415 kts | 338° |
| 2026-04-23 15:23 | 27.30812 | -63.85958 | 43114 ft | 415 kts | 338° |
| 2026-04-23 15:23 | 27.36447 | -63.87193 | 43115 ft | 415 kts | 338° |
| 2026-04-23 15:24 | 27.42139 | -63.88441 | 43116 ft | 416 kts | 338° |
| 2026-04-23 15:24 | 27.47833 | -63.89691 | 43117 ft | 416 kts | 338° |
| 2026-04-23 15:25 | 27.53487 | -63.90934 | 43118 ft | 416 kts | 338° |
| 2026-04-23 15:25 | 27.58255 | -63.91983 | 43119 ft | 417 kts | 338° |
| 2026-04-23 15:26 | 27.64871 | -63.93441 | 43120 ft | 417 kts | 338° |
| 2026-04-23 15:26 | 27.70578 | -63.94699 | 43121 ft | 417 kts | 338° |
| 2026-04-23 15:27 | 27.76285 | -63.95959 | 43122 ft | 417 kts | 338° |
| 2026-04-23 15:27 | 27.81995 | -63.97221 | 43123 ft | 418 kts | 338° |
| 2026-04-23 15:28 | 27.87660 | -63.98474 | 43124 ft | 418 kts | 338° |
| 2026-04-23 15:28 | 27.93373 | -63.99739 | 43126 ft | 418 kts | 338° |
| 2026-04-23 15:29 | 27.99090 | -64.01007 | 43127 ft | 418 kts | 338° |
| 2026-04-23 15:29 | 28.04809 | -64.02276 | 43128 ft | 418 kts | 338° |
| 2026-04-23 15:30 | 28.10522 | -64.03545 | 43129 ft | 418 kts | 338° |
| 2026-04-23 15:30 | 28.16233 | -64.04816 | 43130 ft | 418 kts | 338° |
| 2026-04-23 15:31 | 28.21946 | -64.06088 | 43131 ft | 419 kts | 338° |
| 2026-04-23 15:31 | 28.26706 | -64.07149 | 43131 ft | 419 kts | 338° |
| 2026-04-23 15:32 | 28.33389 | -64.08641 | 43125 ft | 419 kts | 338° |
| 2026-04-23 15:32 | 28.39076 | -64.09912 | 43126 ft | 419 kts | 338° |
| 2026-04-23 15:33 | 28.43874 | -64.10985 | 43127 ft | 419 kts | 338° |
| 2026-04-23 15:33 | 28.49599 | -64.12266 | 43128 ft | 419 kts | 338° |
| 2026-04-23 15:34 | 28.55318 | -64.13547 | 43129 ft | 419 kts | 338° |
| 2026-04-23 15:34 | 28.61032 | -64.14829 | 43130 ft | 419 kts | 338° |
| 2026-04-23 15:35 | 28.66714 | -64.16106 | 43131 ft | 419 kts | 338° |
| 2026-04-23 15:35 | 28.72473 | -64.17401 | 43133 ft | 419 kts | 338° |
| 2026-04-23 15:36 | 28.78149 | -64.18679 | 43134 ft | 419 kts | 338° |
| 2026-04-23 15:36 | 28.83863 | -64.19967 | 43135 ft | 419 kts | 338° |
| 2026-04-23 15:37 | 28.89582 | -64.21257 | 43136 ft | 418 kts | 338° |
| 2026-04-23 15:37 | 28.95298 | -64.22549 | 43137 ft | 418 kts | 338° |
| 2026-04-23 15:38 | 29.01013 | -64.23841 | 43138 ft | 418 kts | 338° |
| 2026-04-23 15:38 | 29.06731 | -64.25136 | 43139 ft | 418 kts | 339° |
| 2026-04-23 15:39 | 29.12439 | -64.26430 | 43141 ft | 418 kts | 338° |
| 2026-04-23 15:39 | 29.18155 | -64.27728 | 43142 ft | 418 kts | 339° |
| 2026-04-23 15:40 | 29.23866 | -64.29026 | 43143 ft | 418 kts | 339° |
| 2026-04-23 15:40 | 29.29579 | -64.30326 | 43144 ft | 418 kts | 339° |
| 2026-04-23 15:41 | 29.35273 | -64.31550 | 43145 ft | 422 kts | 342° |
| 2026-04-23 15:41 | 29.41165 | -64.32267 | 43146 ft | 427 kts | 345° |
| 2026-04-23 15:42 | 29.47108 | -64.32708 | 43147 ft | 429 kts | 347° |
| 2026-04-23 15:42 | 29.53071 | -64.33058 | 43148 ft | 429 kts | 347° |
| 2026-04-23 15:43 | 29.59042 | -64.33382 | 43149 ft | 429 kts | 347° |
| 2026-04-23 15:43 | 29.65012 | -64.33701 | 43150 ft | 429 kts | 347° |
| 2026-04-23 15:44 | 29.70984 | -64.34023 | 43151 ft | 429 kts | 347° |
| 2026-04-23 15:44 | 29.76965 | -64.34349 | 43152 ft | 429 kts | 347° |
| 2026-04-23 15:45 | 29.82932 | -64.34678 | 43153 ft | 430 kts | 347° |
| 2026-04-23 15:45 | 29.88901 | -64.35009 | 43154 ft | 430 kts | 347° |
| 2026-04-23 15:46 | 29.94891 | -64.35347 | 42589 ft | 432 kts | 347° |
| 2026-04-23 15:46 | 29.97883 | -64.35514 | 42129 ft | 430 kts | 347° |
| 2026-04-23 15:46 | 30.00872 | -64.35679 | 41677 ft | 428 kts | 347° |
| 2026-04-23 15:46 | 30.03845 | -64.35843 | 41226 ft | 426 kts | 347° |
| 2026-04-23 15:47 | 30.06798 | -64.36005 | 40776 ft | 424 kts | 347° |
| 2026-04-23 15:47 | 30.09733 | -64.36166 | 40326 ft | 422 kts | 347° |
| 2026-04-23 15:47 | 30.12660 | -64.36328 | 39875 ft | 419 kts | 347° |
| 2026-04-23 15:47 | 30.15566 | -64.36490 | 39426 ft | 417 kts | 347° |
| 2026-04-23 15:48 | 30.18458 | -64.36650 | 38976 ft | 415 kts | 347° |
| 2026-04-23 15:48 | 30.21301 | -64.36809 | 38531 ft | 413 kts | 347° |
| 2026-04-23 15:48 | 30.24158 | -64.36969 | 38081 ft | 410 kts | 347° |
| 2026-04-23 15:48 | 30.27004 | -64.37129 | 37630 ft | 408 kts | 347° |
| 2026-04-23 15:49 | 30.29828 | -64.37289 | 37180 ft | 405 kts | 347° |
| 2026-04-23 15:49 | 30.32639 | -64.37448 | 36730 ft | 403 kts | 347° |
| 2026-04-23 15:49 | 30.35434 | -64.37606 | 36279 ft | 401 kts | 347° |
| 2026-04-23 15:49 | 30.38210 | -64.37764 | 35830 ft | 399 kts | 347° |
| 2026-04-23 15:50 | 30.40973 | -64.37922 | 35380 ft | 396 kts | 348° |
| 2026-04-23 15:50 | 30.43722 | -64.38069 | 34937 ft | 394 kts | 348° |
| 2026-04-23 15:50 | 30.46457 | -64.38218 | 34489 ft | 392 kts | 348° |
| 2026-04-23 15:50 | 30.49178 | -64.38373 | 34039 ft | 390 kts | 348° |
| 2026-04-23 15:51 | 30.51892 | -64.38529 | 33587 ft | 389 kts | 348° |
| 2026-04-23 15:51 | 30.54587 | -64.38687 | 33138 ft | 387 kts | 348° |
| 2026-04-23 15:51 | 30.57267 | -64.38843 | 32688 ft | 385 kts | 348° |
| 2026-04-23 15:51 | 30.59946 | -64.38997 | 32246 ft | 383 kts | 349° |
| 2026-04-23 15:52 | 30.62600 | -64.39149 | 31802 ft | 382 kts | 349° |
| 2026-04-23 15:52 | 30.65262 | -64.39303 | 31350 ft | 380 kts | 349° |
| 2026-04-23 15:52 | 30.67901 | -64.39457 | 30900 ft | 379 kts | 349° |
| 2026-04-23 15:52 | 30.70529 | -64.39611 | 30450 ft | 378 kts | 349° |
| 2026-04-23 15:53 | 30.73157 | -64.39765 | 29999 ft | 377 kts | 349° |
| 2026-04-23 15:53 | 30.75772 | -64.39917 | 29549 ft | 376 kts | 350° |
| 2026-04-23 15:53 | 30.78378 | -64.40069 | 29099 ft | 375 kts | 350° |
| 2026-04-23 15:53 | 30.80985 | -64.40221 | 28648 ft | 374 kts | 350° |
| 2026-04-23 15:54 | 30.83584 | -64.40372 | 28197 ft | 373 kts | 350° |
| 2026-04-23 15:54 | 30.86178 | -64.40523 | 27747 ft | 373 kts | 351° |
| 2026-04-23 15:54 | 30.88761 | -64.40673 | 27297 ft | 372 kts | 351° |
| 2026-04-23 15:54 | 30.91348 | -64.40825 | 26847 ft | 372 kts | 351° |
| 2026-04-23 15:55 | 30.93897 | -64.40974 | 26402 ft | 371 kts | 351° |
| 2026-04-23 15:55 | 30.96515 | -64.41126 | 25945 ft | 371 kts | 351° |
| 2026-04-23 15:55 | 30.99057 | -64.41273 | 25501 ft | 371 kts | 351° |
| 2026-04-23 15:55 | 31.01666 | -64.41424 | 25045 ft | 370 kts | 351° |
| 2026-04-23 15:56 | 31.04239 | -64.41573 | 24595 ft | 370 kts | 352° |
| 2026-04-23 15:56 | 31.06778 | -64.41719 | 24150 ft | 370 kts | 352° |
| 2026-04-23 15:56 | 31.09345 | -64.41868 | 23700 ft | 369 kts | 352° |
| 2026-04-23 15:56 | 31.11911 | -64.42016 | 23250 ft | 369 kts | 352° |
| 2026-04-23 15:57 | 31.14473 | -64.42164 | 22800 ft | 368 kts | 352° |
| 2026-04-23 15:57 | 31.17031 | -64.42311 | 22350 ft | 368 kts | 352° |
| 2026-04-23 15:57 | 31.19588 | -64.42459 | 21899 ft | 367 kts | 352° |
| 2026-04-23 15:57 | 31.22136 | -64.42606 | 21449 ft | 366 kts | 352° |
| 2026-04-23 15:58 | 31.24684 | -64.42754 | 20998 ft | 366 kts | 353° |
| 2026-04-23 15:58 | 31.27219 | -64.42901 | 20549 ft | 365 kts | 353° |
| 2026-04-23 15:58 | 31.29736 | -64.43045 | 20098 ft | 358 kts | 353° |
| 2026-04-23 15:58 | 31.32199 | -64.43182 | 19649 ft | 352 kts | 353° |
| 2026-04-23 15:59 | 31.34625 | -64.43313 | 19199 ft | 347 kts | 353° |
| 2026-04-23 15:59 | 31.37022 | -64.43448 | 18748 ft | 343 kts | 353° |
| 2026-04-23 15:59 | 31.39391 | -64.43585 | 18298 ft | 340 kts | 353° |
| 2026-04-23 15:59 | 31.41745 | -64.43724 | 17847 ft | 337 kts | 353° |
| 2026-04-23 16:00 | 31.44083 | -64.43862 | 17396 ft | 335 kts | 353° |
| 2026-04-23 16:00 | 31.46405 | -64.44000 | 16946 ft | 334 kts | 353° |
| 2026-04-23 16:00 | 31.48723 | -64.44137 | 16496 ft | 333 kts | 353° |
| 2026-04-23 16:00 | 31.51036 | -64.44274 | 16045 ft | 332 kts | 353° |
| 2026-04-23 16:01 | 31.53341 | -64.44411 | 15594 ft | 331 kts | 353° |
| 2026-04-23 16:01 | 31.55645 | -64.44548 | 15145 ft | 331 kts | 353° |
| 2026-04-23 16:01 | 31.57947 | -64.44684 | 14694 ft | 331 kts | 353° |
| 2026-04-23 16:01 | 31.60200 | -64.44813 | 14243 ft | 317 kts | 353° |
| 2026-04-23 16:02 | 31.62339 | -64.44934 | 13797 ft | 306 kts | 353° |
| 2026-04-23 16:02 | 31.64335 | -64.45044 | 13367 ft | 299 kts | 353° |
| 2026-04-23 16:02 | 31.66389 | -64.45160 | 12917 ft | 293 kts | 353° |
| 2026-04-23 16:02 | 31.68388 | -64.45277 | 12471 ft | 289 kts | 353° |
| 2026-04-23 16:03 | 31.70388 | -64.45395 | 12020 ft | 286 kts | 353° |
| 2026-04-23 16:03 | 31.72365 | -64.45507 | 11565 ft | 284 kts | 353° |
| 2026-04-23 16:03 | 31.74331 | -64.45616 | 11110 ft | 282 kts | 353° |
| 2026-04-23 16:03 | 31.76291 | -64.45732 | 10659 ft | 282 kts | 354° |
| 2026-04-23 16:04 | 31.78250 | -64.45852 | 10208 ft | 282 kts | 354° |
| 2026-04-23 16:04 | 31.80169 | -64.45969 | 9758 ft | 271 kts | 354° |
| 2026-04-23 16:04 | 31.82026 | -64.46080 | 9306 ft | 263 kts | 354° |
| 2026-04-23 16:04 | 31.83833 | -64.46189 | 8855 ft | 258 kts | 355° |
| 2026-04-23 16:05 | 31.85039 | -64.46261 | 8550 ft | 255 kts | 355° |
| 2026-04-23 16:05 | 31.87367 | -64.46400 | 7945 ft | 251 kts | 355° |
| 2026-04-23 16:05 | 31.89109 | -64.46502 | 7495 ft | 249 kts | 354° |
| 2026-04-23 16:05 | 31.90834 | -64.46603 | 7040 ft | 247 kts | 355° |
| 2026-04-23 16:06 | 31.92542 | -64.46700 | 6587 ft | 245 kts | 355° |
| 2026-04-23 16:06 | 31.94245 | -64.46799 | 6136 ft | 244 kts | 354° |
| 2026-04-23 16:06 | 31.95942 | -64.46899 | 5682 ft | 243 kts | 354° |
| 2026-04-23 16:06 | 31.97605 | -64.46996 | 5238 ft | 242 kts | 354° |
| 2026-04-23 16:07 | 31.99308 | -64.47099 | 4783 ft | 242 kts | 354° |
| 2026-04-23 16:07 | 32.00992 | -64.47195 | 4327 ft | 242 kts | 354° |
| 2026-04-23 16:07 | 32.02651 | -64.47292 | 3882 ft | 241 kts | 354° |
| 2026-04-23 16:07 | 32.04331 | -64.47395 | 3431 ft | 241 kts | 354° |
| 2026-04-23 16:08 | 32.05993 | -64.47496 | 3200 ft | 233 kts | 354° |
| 2026-04-23 16:08 | 32.07591 | -64.47591 | 3096 ft | 227 kts | 354° |
| 2026-04-23 16:08 | 32.09149 | -64.47684 | 3026 ft | 221 kts | 354° |
| 2026-04-23 16:08 | 32.10658 | -64.47771 | 3008 ft | 214 kts | 354° |
| 2026-04-23 16:09 | 32.12126 | -64.47856 | 3006 ft | 210 kts | 354° |
| 2026-04-23 16:09 | 32.13575 | -64.47942 | 3002 ft | 207 kts | 354° |
| 2026-04-23 16:09 | 32.15001 | -64.48026 | 3005 ft | 204 kts | 354° |
| 2026-04-23 16:09 | 32.16411 | -64.48113 | 3006 ft | 202 kts | 354° |
| 2026-04-23 16:10 | 32.17810 | -64.48199 | 3006 ft | 201 kts | 354° |
| 2026-04-23 16:10 | 32.19199 | -64.48283 | 3006 ft | 200 kts | 354° |
| 2026-04-23 16:10 | 32.20586 | -64.48366 | 2999 ft | 199 kts | 354° |
| 2026-04-23 16:10 | 32.21967 | -64.48392 | 2975 ft | 199 kts | 359° |
| 2026-04-23 16:11 | 32.23367 | -64.48259 | 2635 ft | 205 kts | 4° |
| 2026-04-23 16:11 | 32.24788 | -64.48013 | 2280 ft | 208 kts | 6° |
| 2026-04-23 16:11 | 32.26219 | -64.47712 | 1930 ft | 210 kts | 8° |
| 2026-04-23 16:11 | 32.27635 | -64.47389 | 1665 ft | 207 kts | 8° |
| 2026-04-23 16:12 | 32.29008 | -64.47060 | 1591 ft | 196 kts | 8° |
| 2026-04-23 16:12 | 32.30316 | -64.46936 | 1510 ft | 183 kts | 342° |
| 2026-04-23 16:12 | 32.31334 | -64.47603 | 1612 ft | 154 kts | 318° |
| 2026-04-23 16:12 | 32.32113 | -64.48403 | 1542 ft | 148 kts | 314° |
| 2026-04-23 16:13 | 32.32841 | -64.49209 | 1504 ft | 138 kts | 309° |
| 2026-04-23 16:13 | 32.33514 | -64.50762 | 1500 ft | 122 kts | 284° |
| 2026-04-23 16:13 | 32.33717 | -64.51704 | 1509 ft | 117 kts | 280° |
| 2026-04-23 16:14 | 32.33872 | -64.52664 | 1513 ft | 120 kts | 278° |
| 2026-04-23 16:14 | 32.34013 | -64.53640 | 1507 ft | 119 kts | 277° |
| 2026-04-23 16:14 | 32.34149 | -64.54590 | 1503 ft | 116 kts | 278° |
| 2026-04-23 16:14 | 32.34290 | -64.55527 | 1506 ft | 116 kts | 278° |
| 2026-04-23 16:15 | 32.34439 | -64.56468 | 1509 ft | 117 kts | 279° |
| 2026-04-23 16:15 | 32.34596 | -64.57416 | 1507 ft | 118 kts | 279° |
| 2026-04-23 16:15 | 32.34759 | -64.58367 | 1355 ft | 118 kts | 279° |
| 2026-04-23 16:15 | 32.34923 | -64.59313 | 1188 ft | 117 kts | 279° |
| 2026-04-23 16:16 | 32.35085 | -64.60246 | 1038 ft | 115 kts | 279° |
| 2026-04-23 16:16 | 32.35245 | -64.61171 | 892 ft | 114 kts | 279° |
| 2026-04-23 16:16 | 32.35405 | -64.62093 | 742 ft | 114 kts | 279° |
| 2026-04-23 16:16 | 32.35566 | -64.63013 | 590 ft | 114 kts | 280° |
| 2026-04-23 16:17 | 32.35737 | -64.63921 | 430 ft | 114 kts | 279° |
| 2026-04-23 16:17 | 32.35888 | -64.64828 | 289 ft | 110 kts | 278° |
| 2026-04-23 16:17 | 32.36037 | -64.65729 | 164 ft | 114 kts | 279° |
| 2026-04-23 16:17 | 32.36198 | -64.66646 | 33 ft | 109 kts | 278° |
| 2026-04-23 16:18 | 32.36313 | -64.67354 | 17 ft | 49 kts | 280° |
| 2026-04-23 16:18 | 32.36343 | -64.67530 | 17 ft | 15 kts | 281° |
| 2026-04-23 16:18 | 32.36362 | -64.67644 | 17 ft | 13 kts | 281° |
| 2026-04-23 16:18 | 32.36378 | -64.67744 | 17 ft | 12 kts | 281° |
| 2026-04-23 16:19 | 32.36411 | -64.67811 | 17 ft | 9 kts | 351° |
| 2026-04-23 16:19 | 32.36475 | -64.67806 | 17 ft | 9 kts | 5° |
| 2026-04-23 16:19 | 32.36541 | -64.67798 | 17 ft | 10 kts | 360° |
| 2026-04-23 16:19 | 32.36568 | -64.67855 | 17 ft | 9 kts | 278° |
| 2026-04-23 16:20 | 32.36578 | -64.67924 | 17 ft | 8 kts | 280° |
| 2026-04-23 16:20 | 32.36588 | -64.67991 | 17 ft | 8 kts | 280° |
| 2026-04-23 16:20 | 32.36598 | -64.68056 | 17 ft | 8 kts | 280° |
| 2026-04-23 16:20 | 32.36608 | -64.68119 | 17 ft | 8 kts | 280° |
| 2026-04-23 16:21 | 32.36617 | -64.68181 | 17 ft | 8 kts | 280° |
| 2026-04-23 16:21 | 32.36626 | -64.68241 | 17 ft | 7 kts | 280° |
| 2026-04-23 16:21 | 32.36656 | -64.68280 | 17 ft | 8 kts | 7° |
| 2026-04-23 16:21 | 32.36705 | -64.68274 | 17 ft | 8 kts | 301° |
| 2026-04-23 16:22 | 32.36730 | -64.68324 | 17 ft | 7 kts | 353° |
| 2026-04-23 16:22 | 32.36747 | -64.68323 | 17 ft | 0 kts | 13° |